createdAt,value
2022-08-26T00:00:05.610Z,25.80
2022-08-26T00:01:15.184Z,25.80
2022-08-26T00:02:19.398Z,25.80
2022-08-26T00:03:23.587Z,25.80
2022-08-26T00:04:26.214Z,25.80
2022-08-26T00:05:28.605Z,25.80
2022-08-26T00:06:32.212Z,25.80
2022-08-26T00:07:34.431Z,25.80
2022-08-26T00:08:36.651Z,25.80
2022-08-26T00:09:40.615Z,25.80
2022-08-26T00:10:42.840Z,25.80
2022-08-26T00:11:45.607Z,25.80
2022-08-26T00:12:47.849Z,25.80
2022-08-26T00:13:50.108Z,25.80
2022-08-26T00:14:52.337Z,25.80
2022-08-26T00:15:55.016Z,25.80
2022-08-26T00:16:57.737Z,25.70
2022-08-26T00:18:00.771Z,25.80
2022-08-26T00:19:03.172Z,25.70
2022-08-26T00:20:06.794Z,25.70
2022-08-26T00:21:09.819Z,25.70
2022-08-26T00:22:13.890Z,25.70
2022-08-26T00:23:24.283Z,25.70
2022-08-26T00:24:26.712Z,25.70
2022-08-26T00:25:30.784Z,25.70
2022-08-26T00:26:34.739Z,25.70
2022-08-26T00:27:37.060Z,25.70
2022-08-26T00:28:40.865Z,25.70
2022-08-26T00:29:43.045Z,25.70
2022-08-26T00:30:48.109Z,25.70
2022-08-26T00:31:53.891Z,25.70
2022-08-26T00:32:57.266Z,25.70
2022-08-26T00:33:59.469Z,25.70
2022-08-26T00:35:02.071Z,25.60
2022-08-26T00:36:05.103Z,25.60
2022-08-26T00:37:08.961Z,25.70
2022-08-26T00:38:12.669Z,25.60
2022-08-26T00:39:15.378Z,25.60
2022-08-26T00:40:20.018Z,25.60
2022-08-26T00:41:22.224Z,25.60
2022-08-26T00:42:24.503Z,25.60
2022-08-26T00:43:30.041Z,25.60
2022-08-26T00:44:48.269Z,25.60
2022-08-26T00:45:53.063Z,25.60
2022-08-26T00:46:58.335Z,25.60
2022-08-26T00:48:02.536Z,25.60
2022-08-26T00:49:11.809Z,25.60
2022-08-26T00:50:17.032Z,25.60
2022-08-26T00:51:21.651Z,25.60
2022-08-26T00:52:25.900Z,25.50
2022-08-26T00:53:30.375Z,25.50
2022-08-26T00:54:36.785Z,25.50
2022-08-26T00:55:40.466Z,25.50
2022-08-26T00:56:54.958Z,25.50
2022-08-26T00:57:57.255Z,25.50
2022-08-26T00:59:02.039Z,25.50
2022-08-26T01:00:09.416Z,25.50
2022-08-26T01:01:12.057Z,25.50
2022-08-26T01:02:20.441Z,25.50
2022-08-26T01:03:25.509Z,25.50
2022-08-26T01:04:29.126Z,25.50
2022-08-26T01:05:31.528Z,25.50
2022-08-26T01:06:33.736Z,25.50
2022-08-26T01:07:36.186Z,25.50
2022-08-26T01:08:38.373Z,25.40
2022-08-26T01:09:40.598Z,25.40
2022-08-26T01:10:43.441Z,25.40
2022-08-26T01:11:47.181Z,25.40
2022-08-26T01:12:54.417Z,25.40
2022-08-26T01:13:58.060Z,25.40
2022-08-26T01:15:00.608Z,25.40
2022-08-26T01:16:03.772Z,25.40
2022-08-26T01:17:07.384Z,25.40
2022-08-26T01:18:10.366Z,25.40
2022-08-26T01:19:32.816Z,25.40
2022-08-26T01:20:40.325Z,25.30
2022-08-26T01:21:48.396Z,25.40
2022-08-26T01:23:01.639Z,25.30
2022-08-26T01:24:05.816Z,25.40
2022-08-26T01:25:08.961Z,25.30
2022-08-26T01:26:19.630Z,25.30
2022-08-26T01:27:22.982Z,25.30
2022-08-26T01:28:28.097Z,25.30
2022-08-26T01:29:31.109Z,25.30
2022-08-26T01:30:33.985Z,25.30
2022-08-26T01:31:41.648Z,25.30
2022-08-26T01:32:44.518Z,25.30
2022-08-26T01:33:56.889Z,25.20
2022-08-26T01:35:00.838Z,25.30
2022-08-26T01:36:03.680Z,25.30
2022-08-26T01:37:15.524Z,25.30
2022-08-26T01:38:18.594Z,25.20
2022-08-26T01:39:20.978Z,25.20
2022-08-26T01:40:26.194Z,25.30
2022-08-26T01:41:29.178Z,25.20
2022-08-26T01:42:32.106Z,25.20
2022-08-26T01:43:35.069Z,25.20
2022-08-26T01:44:42.170Z,25.20
2022-08-26T01:45:45.845Z,25.20
2022-08-26T01:46:49.477Z,25.20
2022-08-26T01:47:57.098Z,25.20
2022-08-26T01:49:01.263Z,25.20
2022-08-26T01:50:06.034Z,25.20
2022-08-26T01:51:09.710Z,25.20
2022-08-26T01:52:14.003Z,25.20
2022-08-26T01:53:18.068Z,25.20
2022-08-26T01:54:20.814Z,25.20
2022-08-26T01:55:33.074Z,25.20
2022-08-26T01:56:36.680Z,25.20
2022-08-26T01:57:39.280Z,25.10
2022-08-26T01:58:43.475Z,25.10
2022-08-26T01:59:47.442Z,25.20
2022-08-26T02:00:50.385Z,25.10
2022-08-26T02:01:53.016Z,25.10
2022-08-26T02:03:16.591Z,25.10
2022-08-26T02:04:27.090Z,25.10
2022-08-26T02:05:29.817Z,25.10
2022-08-26T02:06:32.593Z,25.10
2022-08-26T02:07:34.814Z,25.10
2022-08-26T02:08:39.675Z,25.00
2022-08-26T02:09:42.719Z,25.00
2022-08-26T02:10:45.049Z,25.10
2022-08-26T02:11:47.797Z,25.10
2022-08-26T02:12:52.118Z,25.10
2022-08-26T02:13:58.041Z,25.10
2022-08-26T02:15:05.646Z,25.10
2022-08-26T02:16:08.611Z,25.10
2022-08-26T02:17:11.073Z,25.10
2022-08-26T02:18:14.123Z,25.10
2022-08-26T02:19:17.934Z,25.10
2022-08-26T02:20:20.371Z,25.10
2022-08-26T02:21:22.807Z,25.00
2022-08-26T02:22:28.377Z,25.00
2022-08-26T02:23:30.839Z,25.00
2022-08-26T02:25:05.339Z,25.00
2022-08-26T02:26:12.691Z,25.00
2022-08-26T02:27:32.482Z,25.00
2022-08-26T02:28:38.784Z,25.00
2022-08-26T02:29:42.420Z,25.00
2022-08-26T02:30:44.996Z,24.90
2022-08-26T02:31:48.400Z,24.90
2022-08-26T02:32:51.813Z,24.90
2022-08-26T02:33:54.194Z,24.90
2022-08-26T02:34:56.356Z,24.90
2022-08-26T02:35:58.554Z,24.90
2022-08-26T02:37:02.344Z,24.90
2022-08-26T02:38:09.802Z,24.90
2022-08-26T02:39:13.650Z,24.90
2022-08-26T02:40:21.381Z,24.90
2022-08-26T02:41:23.964Z,24.90
2022-08-26T02:42:26.923Z,24.90
2022-08-26T02:43:31.755Z,24.90
2022-08-26T02:44:35.496Z,24.90
2022-08-26T02:45:38.068Z,24.80
2022-08-26T02:46:40.963Z,24.80
2022-08-26T02:47:43.416Z,24.80
2022-08-26T02:48:45.563Z,24.80
2022-08-26T02:49:47.735Z,24.80
2022-08-26T02:50:50.625Z,24.80
2022-08-26T02:51:52.987Z,24.80
2022-08-26T02:52:55.738Z,24.80
2022-08-26T02:53:57.891Z,24.80
2022-08-26T02:55:00.263Z,24.80
2022-08-26T02:56:03.125Z,24.80
2022-08-26T02:57:06.057Z,24.80
2022-08-26T02:58:09.789Z,24.80
2022-08-26T02:59:15.470Z,24.80
2022-08-26T03:00:18.176Z,24.80
2022-08-26T03:01:21.976Z,24.80
2022-08-26T03:02:24.267Z,24.80
2022-08-26T03:03:26.616Z,24.80
2022-08-26T03:04:31.038Z,24.80
2022-08-26T03:05:35.837Z,24.80
2022-08-26T03:06:40.734Z,24.80
2022-08-26T03:07:43.749Z,24.80
2022-08-26T03:08:47.435Z,24.80
2022-08-26T03:09:49.644Z,24.80
2022-08-26T03:10:53.832Z,24.80
2022-08-26T03:11:56.087Z,24.80
2022-08-26T03:13:00.458Z,24.80
2022-08-26T03:14:08.411Z,24.80
2022-08-26T03:15:17.446Z,24.80
2022-08-26T03:16:20.700Z,24.80
2022-08-26T03:17:22.990Z,24.80
2022-08-26T03:18:25.155Z,24.80
2022-08-26T03:19:27.273Z,24.80
2022-08-26T03:20:29.550Z,24.80
2022-08-26T03:21:31.719Z,24.80
2022-08-26T03:22:33.929Z,24.80
2022-08-26T03:23:36.627Z,24.80
2022-08-26T03:24:39.490Z,24.80
2022-08-26T03:25:41.676Z,24.80
2022-08-26T03:26:52.377Z,24.80
2022-08-26T03:27:55.228Z,24.80
2022-08-26T03:29:15.867Z,24.80
2022-08-26T03:30:38.358Z,24.80
2022-08-26T03:31:47.512Z,24.80
2022-08-26T03:32:49.841Z,24.70
2022-08-26T03:33:52.475Z,24.70
2022-08-26T03:34:56.518Z,24.70
2022-08-26T03:36:00.431Z,24.70
2022-08-26T03:37:02.943Z,24.70
2022-08-26T03:38:07.093Z,24.70
2022-08-26T03:39:10.344Z,24.70
2022-08-26T03:40:14.066Z,24.70
2022-08-26T03:41:17.534Z,24.70
2022-08-26T03:42:21.336Z,24.70
2022-08-26T03:43:26.761Z,24.70
2022-08-26T03:44:28.984Z,24.70
2022-08-26T03:45:31.507Z,24.70
2022-08-26T03:46:33.753Z,24.70
2022-08-26T03:47:36.045Z,24.60
2022-08-26T03:48:40.619Z,24.60
2022-08-26T03:49:43.736Z,24.60
2022-08-26T03:50:47.482Z,24.60
2022-08-26T03:51:51.200Z,24.60
2022-08-26T03:52:54.095Z,24.60
2022-08-26T03:53:57.125Z,24.60
2022-08-26T03:54:59.431Z,24.60
2022-08-26T03:56:03.181Z,24.60
2022-08-26T03:57:05.390Z,24.60
2022-08-26T03:58:08.040Z,24.60
2022-08-26T03:59:10.244Z,24.60
2022-08-26T04:00:15.431Z,24.50
2022-08-26T04:01:20.871Z,24.50
2022-08-26T04:02:23.832Z,24.50
2022-08-26T04:03:45.734Z,24.50
2022-08-26T04:04:47.944Z,24.50
2022-08-26T04:05:51.652Z,24.50
2022-08-26T04:07:00.706Z,24.50
2022-08-26T04:08:03.131Z,24.50
2022-08-26T04:09:09.922Z,24.50
2022-08-26T04:10:13.569Z,24.50
2022-08-26T04:11:19.678Z,24.50
2022-08-26T04:12:22.026Z,24.50
2022-08-26T04:13:24.321Z,24.50
2022-08-26T04:14:27.623Z,24.50
2022-08-26T04:15:29.957Z,24.50
2022-08-26T04:16:32.394Z,24.40
2022-08-26T04:17:34.826Z,24.40
2022-08-26T04:18:38.197Z,24.40
2022-08-26T04:19:48.929Z,24.40
2022-08-26T04:20:51.134Z,24.40
2022-08-26T04:21:53.866Z,24.40
2022-08-26T04:22:56.153Z,24.40
2022-08-26T04:23:59.356Z,24.40
2022-08-26T04:25:06.777Z,24.40
2022-08-26T04:26:09.152Z,24.50
2022-08-26T04:27:11.378Z,24.40
2022-08-26T04:28:14.754Z,24.40
2022-08-26T04:29:21.517Z,24.40
2022-08-26T04:30:24.369Z,24.40
2022-08-26T04:31:27.757Z,24.40
2022-08-26T04:32:33.227Z,24.40
2022-08-26T04:33:36.257Z,24.40
2022-08-26T04:34:44.025Z,24.40
2022-08-26T04:35:47.987Z,24.30
2022-08-26T04:36:50.586Z,24.40
2022-08-26T04:37:52.841Z,24.40
2022-08-26T04:38:55.321Z,24.40
2022-08-26T04:39:57.591Z,24.40
2022-08-26T04:41:00.583Z,24.40
2022-08-26T04:42:02.801Z,24.40
2022-08-26T04:43:05.670Z,24.40
2022-08-26T04:44:07.961Z,24.40
2022-08-26T04:45:11.715Z,24.40
2022-08-26T04:46:17.258Z,24.40
2022-08-26T04:47:19.524Z,24.40
2022-08-26T04:48:21.735Z,24.40
2022-08-26T04:49:24.098Z,24.30
2022-08-26T04:50:28.358Z,24.40
2022-08-26T04:51:33.414Z,24.40
2022-08-26T04:52:36.610Z,24.30
2022-08-26T04:53:39.173Z,24.30
2022-08-26T04:54:42.137Z,24.20
2022-08-26T04:55:45.016Z,24.20
2022-08-26T04:56:49.456Z,24.20
2022-08-26T04:57:52.046Z,24.20
2022-08-26T04:58:54.334Z,24.10
2022-08-26T04:59:56.496Z,24.10
2022-08-26T05:00:59.756Z,24.10
2022-08-26T05:02:03.642Z,24.10
2022-08-26T05:03:10.572Z,24.10
2022-08-26T05:04:12.996Z,24.10
2022-08-26T05:05:18.618Z,24.10
2022-08-26T05:06:22.011Z,24.10
2022-08-26T05:07:25.046Z,24.10
2022-08-26T05:08:28.159Z,24.00
2022-08-26T05:09:31.258Z,24.00
2022-08-26T05:10:37.267Z,24.10
2022-08-26T05:11:41.347Z,24.00
2022-08-26T05:12:44.591Z,24.00
2022-08-26T05:13:47.469Z,24.00
2022-08-26T05:14:50.436Z,24.00
2022-08-26T05:15:55.738Z,24.00
2022-08-26T05:17:04.739Z,24.00
2022-08-26T05:18:07.790Z,24.10
2022-08-26T05:19:11.396Z,24.00
2022-08-26T05:20:14.855Z,24.00
2022-08-26T05:21:22.446Z,24.10
2022-08-26T05:22:24.864Z,24.10
2022-08-26T05:23:28.676Z,24.10
2022-08-26T05:24:31.351Z,24.10
2022-08-26T05:25:37.612Z,24.10
2022-08-26T05:26:40.317Z,24.10
2022-08-26T05:27:44.500Z,24.10
2022-08-26T05:28:46.935Z,24.10
2022-08-26T05:29:54.671Z,24.20
2022-08-26T05:30:57.144Z,24.20
2022-08-26T05:32:00.684Z,24.20
2022-08-26T05:33:03.575Z,24.20
2022-08-26T05:34:06.151Z,24.20
2022-08-26T05:35:09.335Z,24.20
2022-08-26T05:36:12.797Z,24.20
2022-08-26T05:37:16.952Z,24.20
2022-08-26T05:38:20.458Z,24.20
2022-08-26T05:39:23.412Z,24.20
2022-08-26T05:40:25.880Z,24.20
2022-08-26T05:41:34.140Z,24.20
2022-08-26T05:42:37.607Z,24.10
2022-08-26T05:43:39.789Z,24.00
2022-08-26T05:44:55.774Z,24.00
2022-08-26T05:46:06.051Z,24.00
2022-08-26T05:47:08.348Z,23.90
2022-08-26T05:48:11.501Z,23.90
2022-08-26T05:49:14.514Z,24.00
2022-08-26T05:50:21.904Z,23.90
2022-08-26T05:51:26.273Z,23.90
2022-08-26T05:52:28.610Z,23.80
2022-08-26T05:53:31.210Z,23.70
2022-08-26T05:54:34.783Z,23.50
2022-08-26T05:56:03.432Z,23.50
2022-08-26T05:57:06.227Z,23.50
2022-08-26T05:58:08.848Z,23.40
2022-08-26T05:59:14.915Z,23.30
2022-08-26T06:00:17.394Z,23.50
2022-08-26T06:01:21.574Z,23.60
2022-08-26T06:02:25.984Z,23.70
2022-08-26T06:03:28.937Z,23.80
2022-08-26T06:04:32.038Z,23.90
2022-08-26T06:05:38.425Z,23.90
2022-08-26T06:06:42.816Z,23.90
2022-08-26T06:08:04.113Z,24.00
2022-08-26T06:09:09.459Z,24.00
2022-08-26T06:10:32.432Z,24.00
2022-08-26T06:11:35.344Z,24.00
2022-08-26T06:12:37.801Z,24.10
2022-08-26T06:13:40.291Z,24.10
2022-08-26T06:14:42.666Z,24.10
2022-08-26T06:15:46.281Z,24.20
2022-08-26T06:16:48.888Z,24.20
2022-08-26T06:17:51.674Z,24.20
2022-08-26T06:18:54.416Z,24.20
2022-08-26T06:19:57.017Z,24.20
2022-08-26T06:20:59.566Z,24.20
2022-08-26T06:22:23.477Z,24.30
2022-08-26T06:23:46.328Z,24.30
2022-08-26T06:25:07.185Z,24.30
2022-08-26T06:26:11.205Z,24.40
2022-08-26T06:27:15.325Z,24.40
2022-08-26T06:28:18.101Z,24.50
2022-08-26T06:29:24.389Z,24.50
2022-08-26T06:30:27.190Z,24.50
2022-08-26T06:31:30.012Z,24.60
2022-08-26T06:32:32.501Z,24.60
2022-08-26T06:33:35.387Z,24.70
2022-08-26T06:34:38.369Z,24.70
2022-08-26T06:35:41.853Z,24.70
2022-08-26T06:36:44.955Z,24.80
2022-08-26T06:37:48.722Z,24.80
2022-08-26T06:38:52.286Z,24.80
2022-08-26T06:39:55.658Z,24.80
2022-08-26T06:40:59.827Z,24.90
2022-08-26T06:42:03.145Z,24.90
2022-08-26T06:43:10.570Z,24.90
2022-08-26T06:44:14.468Z,25.00
2022-08-26T06:45:16.932Z,25.00
2022-08-26T06:46:20.384Z,25.00
2022-08-26T06:47:22.899Z,25.10
2022-08-26T06:48:25.289Z,25.10
2022-08-26T06:49:29.115Z,25.20
2022-08-26T06:50:32.229Z,25.20
2022-08-26T06:51:36.027Z,25.20
2022-08-26T06:52:41.078Z,25.20
2022-08-26T06:53:46.785Z,25.30
2022-08-26T06:54:49.353Z,25.30
2022-08-26T06:55:53.462Z,25.30
2022-08-26T06:56:56.991Z,25.40
2022-08-26T06:58:00.145Z,25.40
2022-08-26T06:59:03.069Z,25.40
2022-08-26T07:00:09.534Z,25.40
2022-08-26T07:01:39.076Z,25.50
2022-08-26T07:02:47.049Z,25.50
2022-08-26T07:03:51.996Z,25.50
2022-08-26T07:04:57.014Z,25.50
2022-08-26T07:06:03.479Z,25.50
2022-08-26T07:07:05.898Z,25.60
2022-08-26T07:08:11.891Z,25.60
2022-08-26T07:09:14.779Z,25.70
2022-08-26T07:10:17.145Z,25.60
2022-08-26T07:11:19.729Z,25.70
2022-08-26T07:12:21.969Z,25.70
2022-08-26T07:13:30.507Z,25.70
2022-08-26T07:14:34.334Z,25.50
2022-08-26T07:15:39.936Z,25.50
2022-08-26T07:16:42.269Z,25.60
2022-08-26T07:17:44.889Z,25.70
2022-08-26T07:18:48.463Z,25.70
2022-08-26T07:19:52.160Z,25.70
2022-08-26T07:20:55.001Z,25.70
2022-08-26T07:22:03.257Z,25.60
2022-08-26T07:23:10.269Z,25.60
2022-08-26T07:24:14.137Z,25.60
2022-08-26T07:25:17.373Z,25.60
2022-08-26T07:26:24.857Z,25.70
2022-08-26T07:27:27.228Z,25.70
2022-08-26T07:28:30.641Z,25.80
2022-08-26T07:29:33.916Z,25.80
2022-08-26T07:30:39.132Z,25.80
2022-08-26T07:31:43.118Z,25.80
2022-08-26T07:32:45.390Z,25.80
2022-08-26T07:33:48.265Z,25.80
2022-08-26T07:34:51.048Z,25.80
2022-08-26T07:35:53.388Z,25.80
2022-08-26T07:36:56.798Z,25.80
2022-08-26T07:37:59.094Z,25.80
2022-08-26T07:39:01.522Z,25.80
2022-08-26T07:40:04.537Z,25.80
2022-08-26T07:41:07.443Z,25.80
2022-08-26T07:42:13.037Z,25.80
2022-08-26T07:43:16.178Z,25.80
2022-08-26T07:44:19.784Z,25.80
2022-08-26T07:45:22.438Z,25.80
2022-08-26T07:46:27.047Z,25.80
2022-08-26T07:47:29.858Z,25.80
2022-08-26T07:48:32.889Z,25.90
2022-08-26T07:49:36.348Z,25.90
2022-08-26T07:50:50.256Z,25.90
2022-08-26T07:51:53.817Z,25.90
2022-08-26T07:52:56.587Z,26.00
2022-08-26T07:53:58.923Z,26.00
2022-08-26T07:55:02.024Z,26.10
2022-08-26T07:56:05.010Z,26.10
2022-08-26T07:57:09.303Z,26.10
2022-08-26T07:58:11.955Z,26.10
2022-08-26T07:59:15.219Z,26.20
2022-08-26T08:00:17.865Z,26.20
2022-08-26T08:01:21.049Z,26.20
2022-08-26T08:02:24.073Z,26.20
2022-08-26T08:03:26.354Z,26.10
2022-08-26T08:04:29.040Z,26.20
2022-08-26T08:05:33.691Z,26.20
2022-08-26T08:06:37.427Z,26.20
2022-08-26T08:07:45.352Z,26.20
2022-08-26T08:08:47.987Z,26.20
2022-08-26T08:09:53.064Z,26.20
2022-08-26T08:10:55.800Z,26.20
2022-08-26T08:12:01.335Z,26.20
2022-08-26T08:13:04.374Z,26.00
2022-08-26T08:14:08.435Z,26.00
2022-08-26T08:15:13.647Z,26.10
2022-08-26T08:16:16.024Z,26.10
2022-08-26T08:17:18.459Z,26.20
2022-08-26T08:18:23.213Z,26.20
2022-08-26T08:19:29.889Z,26.20
2022-08-26T08:20:44.748Z,26.20
2022-08-26T08:21:47.461Z,26.20
2022-08-26T08:22:50.923Z,26.30
2022-08-26T08:23:55.331Z,26.30
2022-08-26T08:24:57.556Z,26.30
2022-08-26T08:26:01.550Z,26.30
2022-08-26T08:27:03.884Z,26.30
2022-08-26T08:28:06.257Z,26.30
2022-08-26T08:29:08.883Z,26.30
2022-08-26T08:30:13.861Z,26.30
2022-08-26T08:31:38.707Z,26.30
2022-08-26T08:32:45.553Z,26.40
2022-08-26T08:33:48.365Z,26.30
2022-08-26T08:34:54.302Z,26.30
2022-08-26T08:35:57.405Z,26.30
2022-08-26T08:36:59.646Z,26.30
2022-08-26T08:38:04.193Z,26.40
2022-08-26T08:39:07.026Z,26.40
2022-08-26T08:40:10.022Z,26.40
2022-08-26T08:41:38.466Z,26.40
2022-08-26T08:42:43.840Z,26.40
2022-08-26T08:43:47.378Z,26.40
2022-08-26T08:44:52.085Z,26.50
2022-08-26T08:45:57.930Z,26.50
2022-08-26T08:47:04.504Z,26.40
2022-08-26T08:48:11.694Z,26.40
2022-08-26T08:49:14.941Z,26.40
2022-08-26T08:50:52.358Z,26.50
2022-08-26T08:51:59.884Z,26.40
2022-08-26T08:53:17.463Z,26.30
2022-08-26T08:54:19.983Z,26.40
2022-08-26T08:55:27.211Z,26.40
2022-08-26T08:56:35.071Z,26.40
2022-08-26T08:58:02.111Z,26.40
2022-08-26T08:59:16.624Z,26.40
2022-08-26T09:00:22.357Z,26.50
2022-08-26T09:01:35.199Z,26.50
2022-08-26T09:02:43.518Z,26.50
2022-08-26T09:03:55.205Z,26.50
2022-08-26T09:05:17.772Z,26.50
2022-08-26T09:06:20.533Z,26.60
2022-08-26T09:07:27.634Z,26.60
2022-08-26T09:08:32.140Z,26.60
2022-08-26T09:09:39.380Z,26.60
2022-08-26T09:10:46.062Z,26.60
2022-08-26T09:11:48.611Z,26.60
2022-08-26T09:12:52.154Z,26.70
2022-08-26T09:13:55.993Z,26.70
2022-08-26T09:15:07.617Z,26.70
2022-08-26T09:16:13.841Z,26.70
2022-08-26T09:17:32.527Z,26.70
2022-08-26T09:18:54.096Z,26.70
2022-08-26T09:20:03.183Z,26.70
2022-08-26T09:21:06.980Z,26.70
2022-08-26T09:22:09.765Z,26.70
2022-08-26T09:23:12.290Z,26.70
2022-08-26T09:24:14.491Z,26.70
2022-08-26T09:25:16.913Z,26.70
2022-08-26T09:26:30.797Z,26.70
2022-08-26T09:27:50.283Z,26.70
2022-08-26T09:28:55.938Z,26.70
2022-08-26T09:29:59.077Z,26.70
2022-08-26T09:31:13.598Z,26.70
2022-08-26T09:32:22.238Z,26.70
2022-08-26T09:33:27.598Z,26.70
2022-08-26T09:34:29.930Z,26.70
2022-08-26T09:35:36.442Z,26.60
2022-08-26T09:36:41.469Z,26.60
2022-08-26T09:38:49.556Z,26.50
2022-08-26T09:39:52.728Z,26.60
2022-08-26T09:40:59.533Z,26.60
2022-08-26T09:42:01.869Z,26.60
2022-08-26T09:43:13.764Z,26.70
2022-08-26T09:44:18.278Z,26.50
2022-08-26T09:45:27.741Z,26.40
2022-08-26T09:46:31.898Z,26.30
2022-08-26T09:47:39.021Z,26.40
2022-08-26T09:48:43.486Z,26.40
2022-08-26T09:49:56.651Z,26.50
2022-08-26T09:51:00.630Z,26.50
2022-08-26T09:52:08.576Z,26.50
2022-08-26T09:53:12.852Z,26.60
2022-08-26T09:54:24.518Z,26.50
2022-08-26T09:55:32.926Z,26.60
2022-08-26T09:56:36.878Z,26.60
2022-08-26T09:57:46.798Z,26.50
2022-08-26T09:58:50.033Z,26.50
2022-08-26T09:59:52.734Z,26.50
2022-08-26T10:00:56.395Z,26.40
2022-08-26T10:02:16.103Z,26.40
2022-08-26T10:03:27.959Z,26.40
2022-08-26T10:04:34.431Z,26.50
2022-08-26T10:05:54.615Z,26.60
2022-08-26T10:06:59.595Z,26.60
2022-08-26T10:08:14.815Z,26.70
2022-08-26T10:09:18.168Z,26.70
2022-08-26T10:10:26.769Z,26.70
2022-08-26T10:11:55.119Z,26.70
2022-08-26T10:13:00.391Z,26.80
2022-08-26T10:14:07.518Z,26.80
2022-08-26T10:15:11.922Z,26.90
2022-08-26T10:16:19.214Z,26.90
2022-08-26T10:17:24.613Z,26.90
2022-08-26T10:18:42.221Z,26.90
2022-08-26T10:19:57.181Z,26.90
2022-08-26T10:21:06.315Z,26.90
2022-08-26T10:22:19.061Z,27.00
2022-08-26T10:23:26.079Z,27.00
2022-08-26T10:24:31.974Z,27.00
2022-08-26T10:25:43.097Z,27.00
2022-08-26T10:27:05.816Z,27.00
2022-08-26T10:28:11.006Z,27.00
2022-08-26T10:29:19.871Z,27.00
2022-08-26T10:30:28.092Z,27.00
2022-08-26T10:31:43.423Z,27.10
2022-08-26T10:32:49.235Z,27.00
2022-08-26T10:33:58.044Z,27.10
2022-08-26T10:35:01.754Z,27.00
2022-08-26T10:36:07.911Z,27.10
2022-08-26T10:37:21.466Z,27.10
2022-08-26T10:38:27.412Z,27.00
2022-08-26T10:39:37.416Z,27.10
2022-08-26T10:40:52.926Z,27.00
2022-08-26T10:42:07.531Z,27.10
2022-08-26T10:43:11.640Z,27.10
2022-08-26T10:44:14.935Z,27.10
2022-08-26T10:45:22.094Z,27.10
2022-08-26T10:46:28.575Z,27.10
2022-08-26T10:47:35.244Z,27.10
2022-08-26T10:48:43.467Z,27.10
2022-08-26T10:49:47.147Z,27.10
2022-08-26T10:50:50.764Z,27.10
2022-08-26T10:51:59.528Z,27.20
2022-08-26T10:53:01.814Z,27.10
2022-08-26T10:54:13.044Z,27.20
2022-08-26T10:55:37.364Z,27.10
2022-08-26T10:56:46.041Z,27.20
2022-08-26T10:57:54.671Z,27.20
2022-08-26T10:59:15.105Z,27.20
2022-08-26T11:00:40.439Z,27.10
2022-08-26T11:01:51.161Z,27.20
2022-08-26T11:02:58.564Z,27.20
2022-08-26T11:04:04.260Z,27.20
2022-08-26T11:05:15.080Z,27.20
2022-08-26T11:06:28.200Z,27.20
2022-08-26T11:07:41.264Z,27.20
2022-08-26T11:08:50.700Z,27.20
2022-08-26T11:09:54.421Z,27.20
2022-08-26T11:10:58.925Z,27.20
2022-08-26T11:12:09.988Z,27.20
2022-08-26T11:13:12.911Z,27.20
2022-08-26T11:14:28.917Z,27.20
2022-08-26T11:15:32.203Z,27.20
2022-08-26T11:16:42.976Z,27.20
2022-08-26T11:17:46.375Z,27.30
2022-08-26T11:18:51.424Z,27.20
2022-08-26T11:20:03.321Z,27.20
2022-08-26T11:21:39.015Z,27.20
2022-08-26T11:22:47.813Z,27.30
2022-08-26T11:23:52.950Z,27.20
2022-08-26T11:24:55.659Z,27.20
2022-08-26T11:26:01.609Z,27.30
2022-08-26T11:27:04.578Z,27.30
2022-08-26T11:28:07.622Z,27.30
2022-08-26T11:29:12.105Z,27.30
2022-08-26T11:30:15.784Z,27.30
2022-08-26T11:31:27.157Z,27.30
2022-08-26T11:32:41.733Z,27.30
2022-08-26T11:33:44.135Z,27.30
2022-08-26T11:34:56.396Z,27.30
2022-08-26T11:35:58.827Z,27.30
2022-08-26T11:37:02.811Z,27.30
2022-08-26T11:38:15.084Z,27.30
2022-08-26T11:39:28.749Z,27.30
2022-08-26T11:40:37.571Z,27.30
2022-08-26T11:41:43.370Z,27.30
2022-08-26T11:42:50.735Z,27.30
2022-08-26T11:43:53.114Z,27.30
2022-08-26T11:44:58.046Z,27.30
2022-08-26T11:46:04.079Z,27.30
2022-08-26T11:47:11.565Z,27.30
2022-08-26T11:48:21.491Z,27.30
2022-08-26T11:49:24.897Z,27.30
2022-08-26T11:50:28.267Z,27.40
2022-08-26T11:51:31.557Z,27.30
2022-08-26T11:52:34.419Z,27.40
2022-08-26T11:53:38.177Z,27.30
2022-08-26T11:54:40.622Z,27.30
2022-08-26T11:55:44.983Z,27.30
2022-08-26T11:56:51.187Z,27.40
2022-08-26T11:57:55.553Z,27.40
2022-08-26T11:58:58.722Z,27.40
2022-08-26T12:00:01.819Z,27.40
2022-08-26T12:01:09.797Z,27.40
2022-08-26T12:02:15.334Z,27.40
2022-08-26T12:03:19.505Z,27.30
2022-08-26T12:04:27.875Z,27.40
2022-08-26T12:05:31.553Z,27.30
2022-08-26T12:06:42.040Z,27.40
2022-08-26T12:07:51.313Z,27.40
2022-08-26T12:08:57.357Z,27.40
2022-08-26T12:10:02.483Z,27.40
2022-08-26T12:11:08.649Z,27.40
2022-08-26T12:12:14.135Z,27.40
2022-08-26T12:13:23.724Z,27.40
2022-08-26T12:14:28.726Z,27.40
2022-08-26T12:15:32.114Z,27.40
2022-08-26T12:16:36.970Z,27.40
2022-08-26T12:17:39.980Z,27.40
2022-08-26T12:18:44.962Z,27.40
2022-08-26T12:19:48.332Z,27.40
2022-08-26T12:20:56.847Z,27.40
2022-08-26T12:22:08.201Z,27.40
2022-08-26T12:23:10.676Z,27.50
2022-08-26T12:24:16.945Z,27.50
2022-08-26T12:25:24.136Z,27.40
2022-08-26T12:26:29.631Z,27.40
2022-08-26T12:27:33.283Z,27.50
2022-08-26T12:28:48.182Z,27.40
2022-08-26T12:30:06.803Z,27.50
2022-08-26T12:31:10.637Z,27.50
2022-08-26T12:32:14.906Z,27.50
2022-08-26T12:33:23.021Z,27.50
2022-08-26T12:34:27.668Z,27.50
2022-08-26T12:35:31.706Z,27.50
2022-08-26T12:36:46.545Z,27.50
2022-08-26T12:37:50.254Z,27.50
2022-08-26T12:38:57.683Z,27.50
2022-08-26T12:40:26.497Z,27.50
2022-08-26T12:41:55.369Z,27.50
2022-08-26T12:43:00.406Z,27.50
2022-08-26T12:44:02.750Z,27.50
2022-08-26T12:45:06.515Z,27.50
2022-08-26T12:46:28.172Z,27.50
2022-08-26T12:47:42.150Z,27.50
2022-08-26T12:48:47.992Z,27.50
2022-08-26T12:49:58.966Z,27.50
2022-08-26T12:51:03.362Z,27.50
2022-08-26T12:52:09.505Z,27.50
2022-08-26T12:53:11.779Z,27.50
2022-08-26T12:54:15.937Z,27.50
2022-08-26T12:55:20.901Z,27.60
2022-08-26T12:56:29.353Z,27.50
2022-08-26T12:57:36.406Z,27.60
2022-08-26T12:58:39.310Z,27.60
2022-08-26T12:59:41.674Z,27.60
2022-08-26T13:00:45.856Z,27.60
2022-08-26T13:01:49.447Z,27.60
2022-08-26T13:02:52.085Z,27.60
2022-08-26T13:03:54.502Z,27.60
2022-08-26T13:05:00.841Z,27.60
2022-08-26T13:06:29.552Z,27.60
2022-08-26T13:07:32.088Z,27.60
2022-08-26T13:08:34.910Z,27.60
2022-08-26T13:09:39.095Z,27.60
2022-08-26T13:10:43.438Z,27.60
2022-08-26T13:11:45.870Z,27.60
2022-08-26T13:12:48.287Z,27.60
2022-08-26T13:13:56.654Z,27.60
2022-08-26T13:15:00.281Z,27.60
2022-08-26T13:16:03.136Z,27.60
2022-08-26T13:17:05.455Z,27.60
2022-08-26T13:18:07.909Z,27.60
2022-08-26T13:19:11.775Z,27.60
2022-08-26T13:20:14.121Z,27.60
2022-08-26T13:21:18.001Z,27.60
2022-08-26T13:22:24.099Z,27.60
2022-08-26T13:23:26.339Z,27.60
2022-08-26T13:24:39.956Z,27.70
2022-08-26T13:25:42.415Z,27.70
2022-08-26T13:26:45.893Z,27.60
2022-08-26T13:27:48.909Z,27.60
2022-08-26T13:29:01.189Z,27.70
2022-08-26T13:30:05.095Z,27.70
2022-08-26T13:31:07.873Z,27.60
2022-08-26T13:32:10.839Z,27.70
2022-08-26T13:33:14.728Z,27.60
2022-08-26T13:34:19.171Z,27.60
2022-08-26T13:35:21.517Z,27.70
2022-08-26T13:36:24.270Z,27.70
2022-08-26T13:37:34.897Z,27.70
2022-08-26T13:38:38.124Z,27.70
2022-08-26T13:39:42.196Z,27.60
2022-08-26T13:40:44.761Z,27.70
2022-08-26T13:41:47.638Z,27.70
2022-08-26T13:42:50.213Z,27.70
2022-08-26T13:43:52.824Z,27.70
2022-08-26T13:44:58.161Z,27.70
2022-08-26T13:46:01.560Z,27.70
2022-08-26T13:47:04.047Z,27.70
2022-08-26T13:48:07.038Z,27.70
2022-08-26T13:49:09.605Z,27.70
2022-08-26T13:50:12.236Z,27.70
2022-08-26T13:51:14.518Z,27.70
2022-08-26T13:52:16.880Z,27.70
2022-08-26T13:53:30.448Z,27.70
2022-08-26T13:54:33.281Z,27.70
2022-08-26T13:55:35.531Z,27.70
2022-08-26T13:56:38.118Z,27.70
2022-08-26T13:57:40.357Z,27.70
2022-08-26T13:58:42.745Z,27.70
2022-08-26T13:59:44.985Z,27.70
2022-08-26T14:00:47.338Z,27.70
2022-08-26T14:01:50.960Z,27.70
2022-08-26T14:02:53.916Z,27.70
2022-08-26T14:03:56.995Z,27.70
2022-08-26T14:04:59.463Z,27.70
2022-08-26T14:06:02.028Z,27.70